Time;durP1;ratioP1;P1;durP2;ratioP2;P2;SDS_P1;SDS_P2;PMS_P1;PMS_P2;Temp;Humidity;BMP_temperature;BMP_pressure;BME280_temperature;BME280_humidity;BME280_pressure;Samples;Min_cycle;Max_cycle;Signal;HPM_P1;HPM_P2
2021/03/11 00:00:24;;;;;;;9.20;2.45;;;14.40;99.90;;;;;;4923086;29;20039;-64
2021/03/11 00:02:51;;;;;;;13.10;2.17;;;15.00;99.90;;;;;;4923231;29;20416;-64
2021/03/11 00:05:19;;;;;;;8.88;2.38;;;15.10;99.90;;;;;;4923111;29;20391;-63
2021/03/11 00:07:46;;;;;;;7.28;1.67;;;15.40;99.90;;;;;;4925094;29;20023;-63
2021/03/11 00:10:17;;;;;;;7.30;1.40;;;15.10;99.90;;;;;;4923830;29;20079;-63
2021/03/11 00:12:44;;;;;;;4.07;1.50;;;15.10;99.90;;;;;;4924068;29;20040;-63
2021/03/11 00:15:14;;;;;;;6.22;1.50;;;14.80;99.90;;;;;;4923289;29;20165;-63
2021/03/11 00:17:41;;;;;;;6.07;1.00;;;14.80;99.90;;;;;;4923920;29;20079;-63
2021/03/11 00:20:10;;;;;;;4.00;1.10;;;14.80;99.90;;;;;;4923848;29;20626;-63
2021/03/11 00:22:38;;;;;;;4.90;1.40;;;14.70;99.90;;;;;;4921735;29;20143;-63
2021/03/11 00:25:08;;;;;;;7.75;1.42;;;14.60;99.90;;;;;;4920951;29;20358;-63
2021/03/11 00:27:35;;;;;;;2.63;0.90;;;14.50;99.90;;;;;;4920665;29;20039;-63
2021/03/11 00:30:03;;;;;;;4.93;1.17;;;14.40;99.90;;;;;;4922026;29;20028;-63
2021/03/11 00:32:30;;;;;;;7.50;1.43;;;14.40;99.90;;;;;;4922821;29;20143;-62
2021/03/11 00:34:56;;;;;;;8.23;1.70;;;14.40;99.90;;;;;;4922878;29;20043;-63
2021/03/11 00:37:23;;;;;;;3.67;1.30;;;14.20;99.90;;;;;;4921766;29;20424;-63
2021/03/11 00:39:50;;;;;;;4.28;1.20;;;14.20;99.90;;;;;;4921547;29;20099;-62
2021/03/11 00:42:16;;;;;;;7.15;1.30;;;14.30;99.90;;;;;;4920008;29;20085;-62
2021/03/11 00:44:43;;;;;;;11.93;1.77;;;14.40;99.90;;;;;;4923022;29;20361;-62
2021/03/11 00:47:09;;;;;;;3.55;1.33;;;14.30;99.90;;;;;;4922026;29;20028;-62
2021/03/11 00:49:36;;;;;;;4.63;0.90;;;14.20;99.90;;;;;;4922083;29;20444;-62
2021/03/11 00:52:04;;;;;;;9.18;1.48;;;14.00;99.90;;;;;;4920909;29;20339;-62
2021/03/11 00:54:31;;;;;;;6.43;1.30;;;14.00;99.90;;;;;;4923033;29;20086;-62
2021/03/11 00:56:57;;;;;;;5.93;1.20;;;13.80;99.90;;;;;;4919713;29;20043;-61
2021/03/11 00:59:24;;;;;;;7.20;1.98;;;13.80;99.90;;;;;;4921504;29;20047;-62
2021/03/11 01:01:51;;;;;;;4.93;1.30;;;13.60;99.90;;;;;;4922297;29;20106;-61
2021/03/11 01:04:17;;;;;;;7.13;1.60;;;13.50;99.90;;;;;;4923571;29;20044;-62
2021/03/11 01:06:44;;;;;;;7.75;1.98;;;13.60;99.90;;;;;;4919799;29;20039;-61
2021/03/11 01:09:11;;;;;;;9.48;1.90;;;13.60;99.90;;;;;;4922043;29;20091;-60
2021/03/11 01:11:37;;;;;;;9.68;2.20;;;13.80;99.90;;;;;;4922784;29;20038;-61
2021/03/11 01:14:04;;;;;;;11.70;1.98;;;13.90;99.90;;;;;;4921797;29;20068;-60
2021/03/11 01:16:31;;;;;;;10.88;1.75;;;13.80;99.90;;;;;;4922205;29;20142;-61
2021/03/11 01:18:57;;;;;;;13.48;1.73;;;13.80;99.90;;;;;;4922261;29;20402;-61
2021/03/11 01:21:24;;;;;;;10.75;1.77;;;13.60;99.90;;;;;;4922112;29;20079;-61
2021/03/11 01:23:51;;;;;;;8.43;2.10;;;13.50;99.90;;;;;;4922022;29;20527;-62
2021/03/11 01:26:18;;;;;;;11.85;3.63;;;13.40;99.90;;;;;;4922279;29;20142;-62
2021/03/11 01:28:44;;;;;;;13.00;3.58;;;13.30;99.90;;;;;;4920852;29;20066;-62
2021/03/11 01:31:11;;;;;;;6.28;2.17;;;13.30;99.90;;;;;;4921483;29;20032;-61
2021/03/11 01:33:38;;;;;;;6.65;1.52;;;13.10;99.90;;;;;;4922232;29;20090;-61
2021/03/11 01:36:04;;;;;;;4.85;1.35;;;12.90;99.90;;;;;;4921594;29;20028;-61
2021/03/11 01:38:31;;;;;;;8.13;2.05;;;12.70;99.90;;;;;;4920683;29;20084;-63
2021/03/11 01:40:58;;;;;;;12.25;2.75;;;12.80;99.90;;;;;;4921196;29;20086;-60
2021/03/11 01:43:24;;;;;;;7.88;2.38;;;12.60;99.90;;;;;;4921801;29;20066;-61
2021/03/11 01:45:51;;;;;;;6.57;1.80;;;12.60;99.90;;;;;;4920463;29;20032;-61
2021/03/11 01:48:18;;;;;;;9.88;2.25;;;12.50;99.90;;;;;;4920006;29;20047;-61
2021/03/11 01:50:44;;;;;;;11.15;1.80;;;12.40;99.90;;;;;;4923609;29;20032;-62
2021/03/11 01:53:11;;;;;;;7.38;2.47;;;12.40;99.90;;;;;;4924997;29;20091;-61
2021/03/11 01:55:38;;;;;;;8.85;2.08;;;12.30;99.90;;;;;;4925778;29;20422;-61
2021/03/11 01:58:05;;;;;;;14.07;2.55;;;12.30;99.90;;;;;;4923495;29;20048;-61
2021/03/11 02:00:31;;;;;;;14.25;3.10;;;12.30;99.90;;;;;;4925266;29;20039;-61
2021/03/11 02:02:59;;;;;;;10.80;2.35;;;12.30;99.90;;;;;;4924818;29;20144;-61
2021/03/11 02:05:27;;;;;;;15.23;3.50;;;12.20;99.90;;;;;;4926848;29;20571;-62
2021/03/11 02:07:54;;;;;;;10.20;2.50;;;12.00;99.90;;;;;;4921904;29;20039;-61
2021/03/11 02:10:24;;;;;;;11.50;3.75;;;12.00;99.90;;;;;;4925968;29;20042;-60
2021/03/11 02:13:26;;;;;;;13.40;2.65;;;12.00;99.90;;;;;;4926193;29;20039;-61
2021/03/11 02:16:03;;;;;;;15.18;3.30;;;12.00;99.90;;;;;;4924120;29;20046;-62
2021/03/11 02:18:54;;;;;;;9.98;2.30;;;12.00;99.90;;;;;;4925552;29;20032;-63
2021/03/11 02:21:28;;;;;;;8.88;2.50;;;11.90;99.90;;;;;;4923969;29;20055;-61
2021/03/11 02:24:16;;;;;;;15.68;2.60;;;12.00;99.90;;;;;;4925141;29;20043;-61
2021/03/11 02:27:04;;;;;;;9.43;2.67;;;12.00;99.90;;;;;;4926136;29;20059;-61
2021/03/11 02:29:38;;;;;;;13.55;3.45;;;12.10;99.90;;;;;;4924690;29;20426;-62
2021/03/11 02:32:08;;;;;;;10.23;2.95;;;12.10;99.90;;;;;;4924055;29;20040;-62
2021/03/11 02:34:47;;;;;;;11.80;3.10;;;11.90;99.90;;;;;;4922965;29;20035;-62
2021/03/11 02:37:20;;;;;;;8.65;3.20;;;12.00;99.90;;;;;;4925121;29;20032;-61
2021/03/11 02:39:53;;;;;;;12.40;2.92;;;12.00;99.90;;;;;;4925168;29;20303;-61
2021/03/11 02:42:22;;;;;;;10.65;2.40;;;12.00;99.90;;;;;;4924931;29;20046;-61
2021/03/11 02:44:50;;;;;;;14.60;2.10;;;12.10;99.90;;;;;;4924354;29;20031;-61
2021/03/11 02:47:16;;;;;;;9.65;2.20;;;12.00;99.90;;;;;;4923463;29;20036;-61
2021/03/11 02:49:47;;;;;;;9.90;1.95;;;12.00;99.90;;;;;;4923884;29;20047;-61
2021/03/11 02:52:14;;;;;;;14.73;2.40;;;12.00;99.90;;;;;;4924549;29;20442;-61
2021/03/11 02:54:43;;;;;;;10.43;2.20;;;12.10;99.90;;;;;;4923416;29;20035;-61
2021/03/11 02:57:13;;;;;;;11.20;1.80;;;12.10;99.90;;;;;;4923067;29;20084;-61
2021/03/11 02:59:43;;;;;;;8.00;1.75;;;12.10;99.90;;;;;;4924369;29;20441;-62
2021/03/11 03:02:11;;;;;;;11.20;1.90;;;12.10;99.90;;;;;;4921600;29;20035;-62
2021/03/11 03:04:39;;;;;;;7.22;2.10;;;12.00;99.90;;;;;;4921299;29;20147;-62
2021/03/11 03:07:08;;;;;;;8.30;1.95;;;12.00;99.90;;;;;;4923330;29;20058;-62
2021/03/11 03:09:35;;;;;;;9.05;1.95;;;12.00;99.90;;;;;;4921417;29;20036;-61
2021/03/11 03:12:02;;;;;;;9.00;1.75;;;12.00;99.90;;;;;;4923963;29;20310;-62
2021/03/11 03:14:29;;;;;;;7.30;2.33;;;12.00;99.90;;;;;;4924482;29;20361;-61
2021/03/11 03:16:56;;;;;;;12.82;2.70;;;12.00;99.90;;;;;;4921798;29;20093;-61
2021/03/11 03:19:27;;;;;;;8.98;1.77;;;11.80;99.90;;;;;;4925100;29;20036;-61
2021/03/11 03:22:00;;;;;;;9.40;2.72;;;11.70;99.90;;;;;;4937529;28;20708;-61
2021/03/11 03:24:30;;;;;;;11.98;2.30;;;11.60;99.90;;;;;;4924787;29;20104;-60
2021/03/11 03:26:57;;;;;;;9.05;2.75;;;11.70;99.90;;;;;;4921716;29;20105;-61
2021/03/11 03:29:26;;;;;;;9.52;2.83;;;11.60;99.90;;;;;;4921984;29;20032;-61
2021/03/11 03:31:53;;;;;;;12.00;2.25;;;11.50;99.90;;;;;;4924311;29;20040;-61
2021/03/11 03:34:20;;;;;;;12.65;3.08;;;11.60;99.90;;;;;;4923806;29;20031;-62
2021/03/11 03:36:47;;;;;;;8.85;2.15;;;11.40;99.90;;;;;;4923869;29;20050;-61
2021/03/11 03:39:14;;;;;;;12.05;2.50;;;11.50;99.90;;;;;;4925098;29;20036;-61
2021/03/11 03:41:46;;;;;;;9.05;2.80;;;11.50;99.90;;;;;;4924853;29;20035;-61
2021/03/11 03:44:14;;;;;;;11.75;2.55;;;11.60;99.90;;;;;;4923284;29;20036;-60
2021/03/11 03:46:45;;;;;;;7.45;1.67;;;11.70;99.90;;;;;;4924381;29;20038;-61
2021/03/11 03:49:13;;;;;;;8.07;2.33;;;11.80;99.90;;;;;;4924461;29;20066;-61
2021/03/11 03:51:46;;;;;;;16.13;2.53;;;11.80;99.90;;;;;;4924572;29;20302;-61
2021/03/11 03:54:26;;;;;;;13.40;2.72;;;11.90;99.90;;;;;;4924330;29;20090;-61
2021/03/11 03:56:57;;;;;;;14.88;3.15;;;12.00;99.90;;;;;;4925042;29;20072;-61
2021/03/11 03:59:26;;;;;;;10.50;2.42;;;12.00;99.90;;;;;;4923870;29;20040;-61
2021/03/11 04:02:08;;;;;;;10.25;2.38;;;12.00;99.90;;;;;;4923887;28;20441;-61
2021/03/11 04:04:43;;;;;;;13.70;2.63;;;12.00;99.90;;;;;;4923280;29;20079;-60
2021/03/11 04:07:16;;;;;;;16.15;2.72;;;12.10;99.90;;;;;;4923533;29;20031;-61
2021/03/11 04:09:44;;;;;;;18.83;2.72;;;12.10;99.90;;;;;;4923940;29;20035;-61
2021/03/11 04:12:13;;;;;;;11.05;2.97;;;12.10;99.90;;;;;;4923806;29;20047;-61
2021/03/11 04:14:40;;;;;;;;;;;12.10;99.90;;;;;;4922210;29;20355;-61
2021/03/11 04:17:30;;;;;;;14.65;2.65;;;12.00;99.90;;;;;;4923832;29;20189;-62
2021/03/11 04:19:56;;;;;;;11.05;2.03;;;12.00;99.90;;;;;;4923170;29;20064;-61
2021/03/11 04:22:26;;;;;;;13.82;2.47;;;12.00;99.90;;;;;;4923214;29;20062;-61
2021/03/11 04:24:53;;;;;;;14.90;3.30;;;12.00;99.90;;;;;;4923646;29;20084;-62
2021/03/11 04:27:20;;;;;;;15.20;2.40;;;12.00;99.90;;;;;;4924224;29;20123;-61
2021/03/11 04:30:06;;;;;;;9.45;2.20;;;12.10;99.90;;;;;;4922347;29;20020;-61
2021/03/11 04:32:39;;;;;;;12.98;2.38;;;12.20;99.90;;;;;;4926277;29;20039;-62
2021/03/11 04:35:11;;;;;;;12.45;2.53;;;12.20;99.90;;;;;;4922777;29;20028;-61
2021/03/11 04:37:53;;;;;;;11.57;2.13;;;12.10;99.90;;;;;;4923017;29;20106;-61
2021/03/11 04:40:21;;;;;;;12.25;2.88;;;12.10;99.90;;;;;;5413343;23;20059;-61
2021/03/11 04:42:51;;;;;;;11.02;2.67;;;12.00;99.90;;;;;;4940073;29;20090;-61
2021/03/11 04:45:25;;;;;;;8.60;2.15;;;12.10;99.90;;;;;;4941458;29;20031;-61
2021/03/11 04:47:52;;;;;;;12.35;2.78;;;12.00;99.90;;;;;;4940941;29;20027;-61
2021/03/11 04:50:19;;;;;;;20.50;3.20;;;12.00;99.90;;;;;;4942129;29;20059;-61
2021/03/11 04:52:46;;;;;;;7.28;2.28;;;12.00;99.90;;;;;;4954126;28;20046;-62
2021/03/11 04:55:13;;;;;;;9.50;1.83;;;12.00;99.90;;;;;;4941673;29;20050;-62
2021/03/11 04:57:40;;;;;;;12.55;2.83;;;12.00;99.90;;;;;;4939319;29;20330;-62
2021/03/11 05:00:23;;;;;;;13.25;2.75;;;12.00;99.90;;;;;;4938228;28;20040;-62
2021/03/11 05:02:50;;;;;;;10.30;2.22;;;12.00;99.90;;;;;;4940924;28;20039;-61
2021/03/11 05:05:38;;;;;;;6.60;1.65;;;12.00;99.90;;;;;;4945746;29;20031;-61
2021/03/11 05:08:05;;;;;;;6.88;1.92;;;11.90;99.90;;;;;;4940653;29;20042;-61
2021/03/11 05:10:41;;;;;;;7.32;1.70;;;11.80;99.90;;;;;;4937960;29;20362;-60
2021/03/11 05:13:08;;;;;;;12.85;2.35;;;11.90;99.90;;;;;;4940592;28;20068;-62
2021/03/11 05:15:37;;;;;;;13.95;2.42;;;12.00;99.90;;;;;;4944566;29;20036;-61
2021/03/11 05:18:04;;;;;;;10.68;2.08;;;12.00;99.90;;;;;;4939995;29;20039;-60
2021/03/11 05:20:31;;;;;;;13.60;2.10;;;12.00;99.90;;;;;;4941638;28;20118;-61
2021/03/11 05:22:58;;;;;;;11.00;2.05;;;12.00;99.90;;;;;;4939845;28;20034;-60
2021/03/11 05:25:28;;;;;;;14.63;2.13;;;12.00;99.90;;;;;;4941828;28;20153;-62
2021/03/11 05:27:54;;;;;;;14.85;2.58;;;12.10;99.90;;;;;;4943503;28;20123;-62
2021/03/11 05:30:21;;;;;;;11.07;2.20;;;12.00;99.90;;;;;;4943930;28;20031;-61
2021/03/11 05:32:55;;;;;;;10.20;1.92;;;12.00;99.90;;;;;;4943872;28;20035;-62
2021/03/11 05:35:21;;;;;;;9.75;2.05;;;11.90;99.90;;;;;;4943446;28;20063;-61
2021/03/11 05:37:48;;;;;;;19.40;2.85;;;11.90;99.90;;;;;;4943796;28;20482;-61
2021/03/11 05:40:17;;;;;;;10.25;2.22;;;11.90;99.90;;;;;;4943674;28;20098;-61
2021/03/11 05:42:49;;;;;;;10.23;2.13;;;12.00;99.90;;;;;;4944250;28;20091;-61
2021/03/11 05:45:15;;;;;;;5.97;1.90;;;12.00;99.90;;;;;;4944526;28;20614;-61
2021/03/11 05:47:44;;;;;;;11.52;2.05;;;12.00;99.90;;;;;;4943710;28;20031;-61
2021/03/11 05:50:14;;;;;;;21.42;3.22;;;11.90;99.90;;;;;;4942989;28;20058;-62
2021/03/11 05:52:42;;;;;;;11.10;1.75;;;11.90;99.90;;;;;;4942720;28;20046;-61
2021/03/11 05:55:10;;;;;;;16.00;2.55;;;11.70;99.90;;;;;;4942735;28;20114;-61
2021/03/11 05:57:41;;;;;;;16.58;2.53;;;11.60;99.90;;;;;;4939438;28;20039;-61
2021/03/11 06:00:13;;;;;;;8.68;2.25;;;11.50;99.90;;;;;;4941720;28;20058;-62
2021/03/11 06:02:42;;;;;;;14.85;2.60;;;11.50;99.90;;;;;;4942763;28;20102;-61
2021/03/11 06:05:15;;;;;;;9.35;1.70;;;11.50;99.90;;;;;;4943743;29;20024;-61
2021/03/11 06:07:56;;;;;;;6.45;0.90;;;11.40;99.90;;;;;;4941010;28;20039;-61
2021/03/11 06:10:24;;;;;;;10.38;1.50;;;11.20;99.90;;;;;;4944763;28;20425;-61
2021/03/11 06:12:52;;;;;;;5.90;1.23;;;11.10;99.90;;;;;;4943151;28;20063;-61
2021/03/11 06:15:32;;;;;;;3.60;1.67;;;10.90;99.90;;;;;;4944600;29;20139;-61
2021/03/11 06:18:11;;;;;;;4.82;1.00;;;10.80;99.90;;;;;;4947673;29;20035;-61
2021/03/11 06:20:38;;;;;;;9.53;1.80;;;10.80;99.90;;;;;;4939410;28;20043;-62
2021/03/11 06:23:32;;;;;;;7.68;0.60;;;10.80;99.90;;;;;;4942588;29;20295;-62
2021/03/11 06:26:13;;;;;;;5.47;0.90;;;10.90;99.90;;;;;;4952134;28;20133;-61
2021/03/11 06:28:54;;;;;;;6.18;1.45;;;10.90;99.90;;;;;;4943710;28;20138;-61
2021/03/11 06:31:30;;;;;;;3.92;1.00;;;10.90;99.90;;;;;;4943679;29;20058;-62
2021/03/11 06:34:27;;;;;;;3.38;1.10;;;11.00;99.90;;;;;;4943392;28;20031;-62
2021/03/11 06:37:11;;;;;;;7.05;0.88;;;11.00;99.90;;;;;;4941131;28;20214;-61
2021/03/11 06:39:45;;;;;;;7.63;1.23;;;10.90;99.90;;;;;;4943560;29;20041;-62
2021/03/11 06:42:54;;;;;;;9.00;1.08;;;11.00;99.90;;;;;;4941316;29;20050;-62
2021/03/11 06:45:23;;;;;;;5.93;1.45;;;10.90;99.90;;;;;;4945660;29;20035;-62
2021/03/11 06:48:25;;;;;;;;;;;10.90;99.90;;;;;;4943408;29;20046;-62
2021/03/11 06:50:56;;;;;;;12.25;1.85;;;10.70;99.90;;;;;;4946326;29;19922;-62
2021/03/11 06:53:27;;;;;;;5.93;1.15;;;10.60;99.90;;;;;;4941931;29;20023;-62
2021/03/11 06:56:19;;;;;;;10.30;2.05;;;10.40;99.90;;;;;;4941353;29;20463;-62
2021/03/11 06:59:18;;;;;;;14.82;1.85;;;10.50;99.90;;;;;;4942910;29;20412;-62
2021/03/11 07:01:54;;;;;;;13.13;1.90;;;10.70;99.90;;;;;;4935523;29;20043;-64
2021/03/11 07:04:26;;;;;;;4.15;1.00;;;10.60;99.90;;;;;;4943439;29;20051;-62
2021/03/11 07:07:00;;;;;;;6.35;1.67;;;10.20;99.90;;;;;;4940189;28;20552;-63
2021/03/11 07:09:40;;;;;;;4.88;1.20;;;10.30;99.90;;;;;;4939890;28;20044;-64
2021/03/11 07:12:07;;;;;;;7.25;1.45;;;10.40;99.90;;;;;;4941204;28;20083;-63
2021/03/11 07:14:48;;;;;;;6.63;1.25;;;10.30;99.90;;;;;;4941732;28;20035;-62
2021/03/11 07:17:25;;;;;;;5.88;1.35;;;10.30;99.90;;;;;;4938877;28;20121;-63
2021/03/11 07:20:15;;;;;;;11.20;2.45;;;10.30;99.90;;;;;;4938718;28;20034;-62
2021/03/11 07:22:43;;;;;;;7.90;1.45;;;10.20;99.90;;;;;;4940808;28;20038;-62
2021/03/11 07:25:30;;;;;;;8.65;1.60;;;10.20;99.90;;;;;;4942776;28;20032;-62
2021/03/11 07:27:57;;;;;;;7.35;1.40;;;10.40;99.90;;;;;;4941251;29;20043;-63
2021/03/11 07:30:25;;;;;;;7.40;1.48;;;10.40;99.90;;;;;;4938618;28;20038;-63
2021/03/11 07:33:12;;;;;;;4.65;1.00;;;10.40;99.90;;;;;;4941630;29;20035;-63
2021/03/11 07:35:39;;;;;;;10.48;1.30;;;10.40;99.90;;;;;;4941033;28;20028;-62
2021/03/11 07:38:07;;;;;;;8.77;1.38;;;10.30;99.90;;;;;;4941377;28;20027;-62
2021/03/11 07:40:34;;;;;;;8.38;1.52;;;10.40;99.90;;;;;;5441453;23;20051;-61
2021/03/11 07:43:02;;;;;;;5.88;1.77;;;10.30;99.90;;;;;;4965592;28;20030;-62
2021/03/11 07:48:27;;;;;;;6.90;1.25;;;10.30;99.90;;;;;;4961837;28;20413;-63
2021/03/11 07:51:09;;;;;;;13.35;1.05;;;10.30;99.90;;;;;;4959317;28;20062;-63
2021/03/11 07:53:52;;;;;;;8.13;0.95;;;10.30;99.90;;;;;;4965932;28;20055;-63
2021/03/11 07:56:32;;;;;;;9.85;1.30;;;10.20;99.90;;;;;;5444047;23;20041;-63
2021/03/11 07:59:41;;;;;;;;;;;;;;;;;;;;;
2021/03/11 08:02:27;;;;;;;4.10;1.48;;;10.20;99.90;;;;;;4939667;28;20047;-63
2021/03/11 08:04:54;;;;;;;4.35;1.05;;;10.10;99.90;;;;;;4928518;28;20050;-62
2021/03/11 08:07:37;;;;;;;6.90;1.10;;;10.10;99.90;;;;;;4926661;28;20110;-62
2021/03/11 08:10:37;;;;;;;6.07;1.38;;;10.30;99.90;;;;;;4932357;28;20054;-63
2021/03/11 08:13:31;;;;;;;4.18;0.93;;;10.20;99.90;;;;;;4938671;29;20138;-63
2021/03/11 08:16:33;;;;;;;6.35;1.33;;;10.10;99.90;;;;;;4939126;28;20039;-62
2021/03/11 08:19:10;;;;;;;4.07;1.02;;;10.10;99.90;;;;;;4944165;28;20046;-62
2021/03/11 08:21:38;;;;;;;4.22;1.25;;;10.10;99.90;;;;;;4937016;28;20154;-62
2021/03/11 08:24:49;;;;;;;6.72;1.50;;;10.10;99.90;;;;;;4941773;28;20027;-63
2021/03/11 08:30:43;;;;;;;5.60;2.05;;;10.30;99.90;;;;;;4931291;29;20191;-62
2021/03/11 08:33:18;;;;;;;19.85;2.17;;;10.30;99.90;;;;;;4940117;29;20099;-62
2021/03/11 08:35:57;;;;;;;6.95;1.30;;;10.20;99.90;;;;;;4939591;28;20036;-62
2021/03/11 08:38:32;;;;;;;7.60;1.10;;;10.30;99.90;;;;;;4939637;28;20035;-62
2021/03/11 08:41:08;;;;;;;7.65;1.35;;;10.20;99.90;;;;;;4940287;29;20137;-62
2021/03/11 08:44:05;;;;;;;6.38;1.10;;;10.00;99.90;;;;;;4942801;29;20468;-61
2021/03/11 08:46:55;;;;;;;12.27;2.22;;;9.80;99.90;;;;;;4923851;29;20031;-62
2021/03/11 08:50:02;;;;;;;;;;;;;;;;;;;;;
2021/03/11 08:53:03;;;;;;;8.02;1.73;;;9.90;99.90;;;;;;4941036;29;20744;-62
2021/03/11 08:55:51;;;;;;;12.48;1.48;;;9.80;99.90;;;;;;4941847;28;20031;-62
2021/03/11 08:58:54;;;;;;;14.70;1.85;;;9.90;99.90;;;;;;4941714;28;20424;-64
2021/03/11 09:01:40;;;;;;;15.95;3.05;;;9.90;99.90;;;;;;4938981;28;20094;-61
2021/03/11 09:04:30;;;;;;;17.70;4.20;;;9.90;99.90;;;;;;4940671;29;20182;-62
2021/03/11 09:07:05;;;;;;;17.70;3.75;;;9.60;99.90;;;;;;4941674;29;20081;-61
2021/03/11 09:09:36;;;;;;;12.30;1.45;;;9.70;99.90;;;;;;4940042;28;20449;-61
2021/03/11 09:14:39;;;;;;;6.32;1.30;;;9.60;99.90;;;;;;4919170;26;20067;-60
2021/03/11 09:17:12;;;;;;;8.23;1.98;;;9.40;99.90;;;;;;4957170;28;20039;-60
2021/03/11 09:19:47;;;;;;;12.32;2.13;;;9.40;99.90;;;;;;4941706;28;20043;-60
2021/03/11 09:22:21;;;;;;;10.60;1.98;;;9.50;99.90;;;;;;4941797;28;20047;-60
2021/03/11 09:25:07;;;;;;;8.65;1.77;;;9.40;99.90;;;;;;4942115;28;20251;-61
2021/03/11 09:27:36;;;;;;;9.82;1.92;;;9.30;99.90;;;;;;4942326;29;20100;-60
2021/03/11 09:30:11;;;;;;;8.50;1.50;;;9.20;99.90;;;;;;4942136;28;20024;-61
2021/03/11 09:32:39;;;;;;;9.55;1.30;;;9.20;99.90;;;;;;4939976;29;20043;-61
2021/03/11 09:35:09;;;;;;;12.32;2.85;;;9.30;99.90;;;;;;4942371;28;20177;-62
2021/03/11 09:37:46;;;;;;;9.40;1.08;;;9.40;99.90;;;;;;4941079;28;20042;-61
2021/03/11 09:40:25;;;;;;;9.13;1.55;;;9.40;99.90;;;;;;4941284;28;20043;-61
2021/03/11 09:43:15;;;;;;;8.45;1.30;;;9.40;99.90;;;;;;4941637;28;20099;-61
2021/03/11 09:45:54;;;;;;;8.55;1.27;;;9.30;99.90;;;;;;4941267;28;20066;-61
2021/03/11 09:48:23;;;;;;;12.43;1.83;;;9.20;99.90;;;;;;4941321;29;20031;-62
2021/03/11 09:51:09;;;;;;;8.82;2.05;;;9.10;99.90;;;;;;4940741;28;20035;-60
2021/03/11 09:53:48;;;;;;;9.98;1.80;;;9.10;99.90;;;;;;4941490;29;20119;-61
2021/03/11 09:56:30;;;;;;;9.25;1.70;;;9.20;99.90;;;;;;4942693;28;20031;-61
2021/03/11 09:59:09;;;;;;;14.48;2.00;;;9.20;99.90;;;;;;4940382;28;20170;-61
2021/03/11 10:01:41;;;;;;;9.70;1.33;;;9.20;99.90;;;;;;4943628;28;20189;-61
2021/03/11 10:04:25;;;;;;;9.20;1.38;;;9.20;99.90;;;;;;4941795;29;20077;-61
2021/03/11 10:07:02;;;;;;;9.70;1.65;;;9.30;99.90;;;;;;4941405;28;20417;-61
2021/03/11 10:09:49;;;;;;;12.38;2.05;;;9.40;99.90;;;;;;4940317;28;20727;-61
2021/03/11 10:12:40;;;;;;;11.45;1.60;;;9.40;99.90;;;;;;4944826;28;20039;-61
2021/03/11 10:15:14;;;;;;;11.57;2.30;;;9.50;99.90;;;;;;4943215;29;20051;-61
2021/03/11 10:17:45;;;;;;;6.95;1.10;;;9.50;99.90;;;;;;4944295;29;20114;-61
2021/03/11 10:20:25;;;;;;;4.57;1.52;;;9.60;99.90;;;;;;4942284;29;20106;-61
2021/03/11 10:23:20;;;;;;;15.48;2.80;;;9.40;99.90;;;;;;4944797;28;20061;-61
2021/03/11 10:26:18;;;;;;;8.80;1.73;;;9.40;99.90;;;;;;4945098;28;20036;-61
2021/03/11 10:28:47;;;;;;;7.03;1.35;;;9.40;99.90;;;;;;4945301;29;20031;-62
2021/03/11 10:31:14;;;;;;;;;;;9.50;99.90;;;;;;4942333;29;20035;-62
2021/03/11 10:33:47;;;;;;;6.38;2.03;;;9.40;99.90;;;;;;4944315;28;20002;-62
2021/03/11 10:36:17;;;;;;;11.07;1.50;;;9.40;99.90;;;;;;4942725;28;20041;-62
2021/03/11 10:39:24;;;;;;;4.85;1.30;;;9.40;99.90;;;;;;4944543;29;20465;-62
2021/03/11 10:42:07;;;;;;;7.72;1.88;;;9.50;99.90;;;;;;4905519;29;20054;-62
2021/03/11 10:44:39;;;;;;;4.72;0.70;;;9.40;99.90;;;;;;4947689;29;20046;-62
2021/03/11 10:47:16;;;;;;;7.53;1.38;;;9.40;99.90;;;;;;4941490;28;20070;-62
2021/03/11 10:50:05;;;;;;;6.10;0.80;;;9.30;99.90;;;;;;4943973;29;20027;-62
2021/03/11 10:52:48;;;;;;;8.80;1.15;;;9.30;99.90;;;;;;4941389;28;20046;-62
2021/03/11 10:55:33;;;;;;;9.13;0.98;;;9.40;99.90;;;;;;4943564;28;20106;-62
2021/03/11 10:58:04;;;;;;;5.40;0.88;;;9.30;99.90;;;;;;4942332;28;20456;-62
2021/03/11 11:00:36;;;;;;;5.47;1.00;;;9.40;99.90;;;;;;4943560;28;20118;-62
2021/03/11 11:03:08;;;;;;;9.00;1.00;;;9.40;99.90;;;;;;4943600;29;20425;-62
2021/03/11 11:05:44;;;;;;;6.03;0.85;;;9.40;99.90;;;;;;4947104;29;20031;-62
2021/03/11 11:08:12;;;;;;;2.08;0.55;;;9.50;99.90;;;;;;4948918;29;20067;-62
2021/03/11 11:11:01;;;;;;;2.67;0.70;;;9.60;99.90;;;;;;4943394;29;20023;-62
2021/03/11 11:13:34;;;;;;;3.42;0.85;;;9.60;99.90;;;;;;4940805;28;20308;-62
2021/03/11 11:16:08;;;;;;;4.00;0.80;;;9.60;99.90;;;;;;4943414;29;20380;-62
2021/03/11 11:18:36;;;;;;;3.25;0.65;;;9.60;99.90;;;;;;4948834;29;20059;-62
2021/03/11 11:21:07;;;;;;;2.65;0.77;;;9.60;99.90;;;;;;4942284;29;20086;-62
2021/03/11 11:23:48;;;;;;;4.53;0.90;;;9.60;99.90;;;;;;4941512;29;20044;-62
2021/03/11 11:26:25;;;;;;;3.78;0.90;;;9.70;99.90;;;;;;4943302;28;20130;-62
2021/03/11 11:28:53;;;;;;;3.17;0.60;;;9.80;99.90;;;;;;4942573;29;20034;-62
2021/03/11 11:31:23;;;;;;;4.70;0.85;;;9.80;99.90;;;;;;4943576;29;20138;-62
2021/03/11 11:33:52;;;;;;;7.55;1.02;;;9.70;99.90;;;;;;4949111;29;20378;-62
2021/03/11 11:36:20;;;;;;;10.65;1.20;;;9.70;99.90;;;;;;4943082;29;20138;-62
2021/03/11 11:38:49;;;;;;;6.20;1.45;;;9.70;99.90;;;;;;4942987;29;20035;-63
2021/03/11 11:41:23;;;;;;;3.80;1.42;;;9.80;99.90;;;;;;4942965;29;20398;-63
2021/03/11 11:44:00;;;;;;;3.22;1.00;;;9.80;99.90;;;;;;4943192;28;20142;-62
2021/03/11 11:46:43;;;;;;;4.68;0.75;;;9.70;99.90;;;;;;4941671;29;20050;-63
2021/03/11 11:49:13;;;;;;;4.57;0.90;;;9.70;99.90;;;;;;4944301;29;20033;-62
2021/03/11 11:51:54;;;;;;;2.13;0.70;;;9.80;99.90;;;;;;4942093;29;20050;-63
2021/03/11 11:54:31;;;;;;;6.70;0.60;;;9.80;99.90;;;;;;4941790;29;20047;-62
2021/03/11 11:57:18;;;;;;;5.07;1.25;;;9.70;99.90;;;;;;4941214;29;20039;-63
2021/03/11 11:59:58;;;;;;;5.65;0.82;;;9.80;99.90;;;;;;4942476;28;20070;-62
2021/03/11 12:02:42;;;;;;;7.72;0.93;;;9.80;99.90;;;;;;4943455;29;20481;-62
2021/03/11 12:05:43;;;;;;;6.13;0.85;;;9.70;99.90;;;;;;4940020;29;20155;-62
2021/03/11 12:08:22;;;;;;;6.80;1.85;;;9.70;99.90;;;;;;4940708;29;20147;-64
2021/03/11 12:11:19;;;;;;;2.67;0.75;;;9.80;99.90;;;;;;4941669;29;20047;-62
2021/03/11 12:13:52;;;;;;;3.10;0.70;;;9.80;99.90;;;;;;4926977;29;20396;-63
2021/03/11 12:16:18;;;;;;;7.45;1.33;;;9.70;99.90;;;;;;4941339;28;20071;-62
2021/03/11 12:18:45;;;;;;;4.55;0.90;;;9.60;99.90;;;;;;4941937;29;20428;-63
2021/03/11 12:21:12;;;;;;;4.30;0.68;;;9.70;99.90;;;;;;4937920;29;20118;-62
2021/03/11 12:23:38;;;;;;;4.28;0.57;;;9.70;99.90;;;;;;4942327;29;20035;-62
2021/03/11 12:26:05;;;;;;;3.95;0.80;;;9.50;99.90;;;;;;4940493;29;20189;-61
2021/03/11 12:28:32;;;;;;;7.03;1.13;;;9.40;99.90;;;;;;4942585;28;20468;-61
2021/03/11 12:30:59;;;;;;;3.95;0.98;;;9.40;99.90;;;;;;4943096;29;20053;-61
2021/03/11 12:33:26;;;;;;;3.83;0.75;;;9.40;99.90;;;;;;4939806;28;20649;-61
2021/03/11 12:35:53;;;;;;;4.07;0.60;;;9.20;99.90;;;;;;4941435;29;20362;-61
2021/03/11 12:38:27;;;;;;;2.10;0.70;;;9.10;99.90;;;;;;4941439;29;20126;-62
2021/03/11 12:40:54;;;;;;;8.90;1.67;;;9.20;99.90;;;;;;4940105;29;20041;-62
2021/03/11 12:43:21;;;;;;;3.78;0.70;;;9.20;99.90;;;;;;4946028;29;20038;-61
2021/03/11 12:45:48;;;;;;;6.82;1.48;;;9.20;99.90;;;;;;4946239;29;20462;-62
2021/03/11 12:48:18;;;;;;;2.63;0.70;;;9.20;99.90;;;;;;4941998;29;20036;-61
2021/03/11 12:51:09;;;;;;;7.28;1.23;;;9.20;99.90;;;;;;4940576;28;20149;-62
2021/03/11 12:53:35;;;;;;;4.82;1.10;;;9.30;99.90;;;;;;4940263;28;20420;-61
2021/03/11 12:56:06;;;;;;;5.43;0.80;;;9.20;99.90;;;;;;4941497;29;20043;-62
2021/03/11 12:58:41;;;;;;;2.78;0.50;;;9.30;99.90;;;;;;4942271;29;20118;-62
2021/03/11 13:01:19;;;;;;;6.35;1.15;;;9.20;99.90;;;;;;4940419;28;20040;-62
2021/03/11 13:03:59;;;;;;;2.60;0.90;;;9.20;99.90;;;;;;4941550;29;20362;-62
2021/03/11 13:06:26;;;;;;;4.90;0.98;;;9.40;99.90;;;;;;4941017;29;20098;-62
2021/03/11 13:08:52;;;;;;;3.95;1.35;;;9.30;99.90;;;;;;4940978;29;20031;-61
2021/03/11 13:11:21;;;;;;;5.38;1.52;;;9.40;99.90;;;;;;4942229;28;20086;-61
2021/03/11 13:13:47;;;;;;;6.22;0.77;;;9.30;99.90;;;;;;4941515;28;20063;-61
2021/03/11 13:16:14;;;;;;;8.68;1.17;;;9.20;99.90;;;;;;4943962;29;20036;-61
2021/03/11 13:18:41;;;;;;;3.67;0.90;;;9.20;99.90;;;;;;4940807;29;20041;-61
2021/03/11 13:21:08;;;;;;;6.05;1.85;;;9.20;99.90;;;;;;4941904;29;20046;-61
2021/03/11 13:23:34;;;;;;;10.38;2.10;;;9.10;99.90;;;;;;4939044;29;20559;-61
2021/03/11 13:26:01;;;;;;;6.47;0.93;;;9.00;99.90;;;;;;4940696;29;20107;-62
2021/03/11 13:28:28;;;;;;;7.43;2.63;;;9.10;99.90;;;;;;4939383;29;20027;-62
2021/03/11 13:30:54;;;;;;;8.48;1.30;;;9.10;99.90;;;;;;4942123;29;20119;-61
2021/03/11 13:33:21;;;;;;;8.23;1.10;;;9.00;99.90;;;;;;4941050;29;20031;-61